createdAt,value
2018-09-04T00:00:15.851Z,19.30
2018-09-04T00:06:20.915Z,19.40
2018-09-04T00:12:26.257Z,19.30
2018-09-04T00:18:30.934Z,19.20
2018-09-04T00:24:35.808Z,19.20
2018-09-04T00:30:41.765Z,19.20
2018-09-04T00:36:47.407Z,19.20
2018-09-04T00:42:52.196Z,19.20
2018-09-04T00:48:57.145Z,19.20
2018-09-04T00:55:01.967Z,19.10
2018-09-04T01:01:06.705Z,19.00
2018-09-04T01:07:11.823Z,18.90
2018-09-04T01:13:16.784Z,18.80
2018-09-04T01:19:21.509Z,18.80
2018-09-04T01:25:26.388Z,18.80
2018-09-04T01:31:31.225Z,18.80
2018-09-04T01:37:36.063Z,18.80
2018-09-04T01:43:41.998Z,18.70
2018-09-04T01:49:47.029Z,18.70
2018-09-04T01:55:52.015Z,18.60
2018-09-04T02:01:57.171Z,18.60
2018-09-04T02:08:02.057Z,18.60
2018-09-04T02:14:07.096Z,18.50
2018-09-04T02:20:12.046Z,18.50
2018-09-04T02:26:16.980Z,18.40
2018-09-04T02:32:21.936Z,18.30
2018-09-04T02:38:27.769Z,18.30
2018-09-04T02:44:32.940Z,18.20
2018-09-04T02:50:37.768Z,18.10
2018-09-04T02:56:47.852Z,18.00
2018-09-04T03:02:52.770Z,17.90
2018-09-04T03:08:57.652Z,17.80
2018-09-04T03:15:02.518Z,17.70
2018-09-04T03:21:07.438Z,17.60
2018-09-04T03:27:12.479Z,17.50
2018-09-04T03:33:17.274Z,17.50
2018-09-04T03:39:22.077Z,17.50
2018-09-04T03:45:27.194Z,17.50
2018-09-04T03:51:31.946Z,17.40
2018-09-04T03:57:37.215Z,17.50
2018-09-04T04:03:44.108Z,17.50
2018-09-04T04:09:49.230Z,17.60
2018-09-04T04:15:53.959Z,17.50
2018-09-04T04:21:58.862Z,17.40
2018-09-04T04:28:03.657Z,17.40
2018-09-04T04:34:09.876Z,17.20
2018-09-04T04:40:15.520Z,17.00
2018-09-04T04:46:20.325Z,17.00
2018-09-04T04:52:25.276Z,17.00
2018-09-04T04:58:30.017Z,17.00
2018-09-04T05:04:34.816Z,17.00
2018-09-04T05:10:40.815Z,17.00
2018-09-04T05:16:46.263Z,17.00
2018-09-04T05:22:51.220Z,17.00
2018-09-04T05:28:56.089Z,17.00
2018-09-04T05:35:01.112Z,17.10
2018-09-04T05:41:05.986Z,17.00
2018-09-04T05:47:10.967Z,17.00
2018-09-04T05:53:16.363Z,16.90
2018-09-04T05:59:21.554Z,17.00
2018-09-04T06:05:26.523Z,17.20
2018-09-04T06:11:31.313Z,17.50
2018-09-04T06:17:36.092Z,17.80
2018-09-04T06:23:41.758Z,18.10
2018-09-04T06:29:47.000Z,18.30
2018-09-04T06:35:52.071Z,18.50
2018-09-04T06:41:56.886Z,18.80
2018-09-04T06:48:01.901Z,19.00
2018-09-04T06:54:06.969Z,20.00
2018-09-04T07:00:15.078Z,22.80
2018-09-04T07:06:20.301Z,24.90
2018-09-04T07:12:25.097Z,25.80
2018-09-04T07:18:29.945Z,26.20
2018-09-04T07:24:34.808Z,24.60
2018-09-04T07:30:39.841Z,23.50
2018-09-04T07:36:46.235Z,22.90
2018-09-04T07:42:51.080Z,22.50
2018-09-04T07:48:55.855Z,22.20
2018-09-04T07:55:00.630Z,22.30
2018-09-04T08:01:06.354Z,22.70
2018-09-04T08:07:11.217Z,23.00
2018-09-04T08:13:16.454Z,23.30
2018-09-04T08:19:21.466Z,23.50
2018-09-04T08:25:26.979Z,23.90
2018-09-04T08:31:31.720Z,24.20
2018-09-04T08:37:36.710Z,24.60
2018-09-04T08:43:41.482Z,25.20
2018-09-04T08:49:46.725Z,25.30
2018-09-04T08:55:51.645Z,25.40
2018-09-04T09:01:56.545Z,25.80
2018-09-04T09:08:01.370Z,26.30
2018-09-04T09:14:06.423Z,26.80
2018-09-04T09:20:12.173Z,27.10
2018-09-04T09:26:17.020Z,27.70
2018-09-04T09:32:21.788Z,28.20
2018-09-04T09:38:26.699Z,28.20
2018-09-04T09:44:31.826Z,28.00
2018-09-04T09:50:36.771Z,28.40
2018-09-04T09:56:41.921Z,28.70
2018-09-04T10:02:51.988Z,29.40
2018-09-04T10:08:56.798Z,31.00
2018-09-04T10:15:01.511Z,32.20
2018-09-04T10:21:06.941Z,33.50
2018-09-04T10:27:12.441Z,34.60
2018-09-04T10:33:17.445Z,35.10
2018-09-04T10:39:27.477Z,33.90
2018-09-04T10:45:37.384Z,33.40
2018-09-04T10:51:43.309Z,33.70
2018-09-04T10:57:48.399Z,33.60
2018-09-04T11:03:53.250Z,33.80
2018-09-04T11:09:58.222Z,33.20
2018-09-04T11:16:03.139Z,31.70
2018-09-04T11:22:07.916Z,30.80
2018-09-04T11:28:14.051Z,32.50
2018-09-04T11:34:18.955Z,33.30
2018-09-04T11:40:24.017Z,34.40
2018-09-04T11:46:28.772Z,34.90
2018-09-04T11:52:33.801Z,35.70
2018-09-04T11:58:38.886Z,32.90
2018-09-04T12:04:45.098Z,32.70
2018-09-04T12:10:50.016Z,33.20
2018-09-04T12:16:54.792Z,34.00
2018-09-04T12:22:59.843Z,34.20
2018-09-04T12:29:05.072Z,33.80
2018-09-04T12:35:10.675Z,33.40
2018-09-04T12:41:17.019Z,31.80
2018-09-04T12:47:21.766Z,31.10
2018-09-04T12:53:27.488Z,32.70
2018-09-04T12:59:32.211Z,33.20
2018-09-04T13:05:37.415Z,33.80
2018-09-04T13:11:44.871Z,34.20
2018-09-04T13:17:49.641Z,35.50
2018-09-04T13:23:54.406Z,35.40
2018-09-04T13:29:59.437Z,35.20
2018-09-04T13:36:04.126Z,35.40
2018-09-04T13:42:09.372Z,35.30
2018-09-04T13:48:14.571Z,34.80
2018-09-04T13:54:19.577Z,35.50
2018-09-04T14:00:25.598Z,35.90
2018-09-04T14:06:30.488Z,36.20
2018-09-04T14:12:35.217Z,35.80
2018-09-04T14:18:40.368Z,34.60
2018-09-04T14:24:45.799Z,35.60
2018-09-04T14:30:50.763Z,36.20
2018-09-04T14:36:55.608Z,35.70
2018-09-04T14:43:00.416Z,35.60
2018-09-04T14:49:05.689Z,36.60
2018-09-04T14:55:11.660Z,36.40
2018-09-04T15:01:16.347Z,36.20
2018-09-04T15:07:21.061Z,35.90
2018-09-04T15:13:25.937Z,36.20
2018-09-04T15:19:31.108Z,35.40
2018-09-04T15:25:36.029Z,34.90
2018-09-04T15:31:41.421Z,34.40
2018-09-04T15:37:46.215Z,33.80
2018-09-04T15:43:51.140Z,34.70
2018-09-04T15:49:55.979Z,35.30
2018-09-04T15:56:00.748Z,35.10
2018-09-04T16:02:05.942Z,33.60
2018-09-04T16:08:11.311Z,32.10
2018-09-04T16:14:16.384Z,32.60
2018-09-04T16:20:21.264Z,31.80
2018-09-04T16:26:26.049Z,31.80
2018-09-04T16:32:30.955Z,31.20
2018-09-04T16:38:35.739Z,31.00
2018-09-04T16:44:41.700Z,31.20
2018-09-04T16:50:46.858Z,31.70
2018-09-04T16:56:52.281Z,32.00
2018-09-04T17:02:57.056Z,31.50
2018-09-04T17:09:01.735Z,30.60
2018-09-04T17:15:06.685Z,30.60
2018-09-04T17:21:11.746Z,30.60
2018-09-04T17:27:16.761Z,30.00
2018-09-04T17:33:21.890Z,29.40
2018-09-04T17:39:26.738Z,28.60
2018-09-04T17:45:31.535Z,28.00
2018-09-04T17:51:36.498Z,27.30
2018-09-04T17:57:41.349Z,26.40
2018-09-04T18:03:46.273Z,25.70
2018-09-04T18:09:50.990Z,25.20
2018-09-04T18:15:55.923Z,24.70
2018-09-04T18:22:00.744Z,24.30
2018-09-04T18:28:05.537Z,24.00
2018-09-04T18:34:11.719Z,23.80
2018-09-04T18:40:16.726Z,23.60
2018-09-04T18:47:06.941Z,23.20
2018-09-04T18:53:12.919Z,23.00
2018-09-04T18:59:17.863Z,22.90
2018-09-04T19:05:22.707Z,22.70
2018-09-04T19:11:27.488Z,22.60
2018-09-04T19:17:32.360Z,22.40
2018-09-04T19:23:37.244Z,22.20
2018-09-04T19:29:42.236Z,22.10
2018-09-04T19:35:47.215Z,22.00
2018-09-04T19:41:52.218Z,21.70
2018-09-04T19:47:57.380Z,21.40
2018-09-04T19:54:02.182Z,21.10
2018-09-04T20:00:07.977Z,20.90
2018-09-04T20:06:13.686Z,20.80
2018-09-04T20:12:18.697Z,20.70
2018-09-04T20:18:23.441Z,20.60
2018-09-04T20:24:28.467Z,20.50
2018-09-04T20:30:33.515Z,20.40
2018-09-04T20:36:38.719Z,20.30
2018-09-04T20:42:44.327Z,20.20
2018-09-04T20:48:49.960Z,20.00
2018-09-04T20:54:54.817Z,19.90
2018-09-04T21:01:16.247Z,19.80
2018-09-04T21:07:24.404Z,19.60
2018-09-04T21:13:29.162Z,19.50
2018-09-04T21:19:34.358Z,19.30
2018-09-04T21:25:39.254Z,19.20
2018-09-04T21:31:44.854Z,19.10
2018-09-04T21:37:49.494Z,18.90
2018-09-04T21:43:54.398Z,18.70
2018-09-04T21:49:59.465Z,18.70
2018-09-04T21:56:05.055Z,18.70
2018-09-04T22:02:10.344Z,18.60
2018-09-04T22:08:15.812Z,18.50
2018-09-04T22:14:21.022Z,18.30
2018-09-04T22:20:26.545Z,18.20
2018-09-04T22:26:31.374Z,18.00
2018-09-04T22:32:36.361Z,17.90
2018-09-04T22:38:42.196Z,17.90
2018-09-04T22:44:46.910Z,17.70
2018-09-04T22:50:56.877Z,17.50
2018-09-04T22:57:01.906Z,17.40
2018-09-04T23:03:06.884Z,17.40
2018-09-04T23:09:12.606Z,17.30
2018-09-04T23:15:17.367Z,17.20
2018-09-04T23:21:22.116Z,17.20
2018-09-04T23:27:27.172Z,17.10
2018-09-04T23:33:33.239Z,17.00
2018-09-04T23:39:39.992Z,16.90
2018-09-04T23:45:45.482Z,16.90
2018-09-04T23:51:50.290Z,16.80
2018-09-04T23:57:55.260Z,16.70
